North Salem, Indiana
Current Conditions -  °F | °C
As of 4:53 PM on Monday 20 Oct 2014 (Local Time) from KEYE Reporting Station
Scattered Clouds Scattered Clouds  
Wind Chill: 67°   Ceiling: Unl
Heat Index: 67°   Visibility: 10mi
Dew Point: 46°   Wind: 15mph
Humidity: 47%   Direction: 290°WNW
Pressure: 29.83"   Gusts: 21mph
Location:  39.86°N, 86.64°W
Report Text: KEYE 202053Z AUTO 29013G18KT 10SM SCT055 19/08 A2983 RMK AO2 SLP101 T01940078 55008
Loading
Personal Weather Stations






























Interactive Weather Map
Tropical Storm Tracking
New forecast layout! Learn more

10-Day Weather Forecast

Advertisements
Track Severe Weather on mobile